Airfield :
LOGIN :

Register | Disclaimer

   EN    FR    IT 

 










Legend :    VFR   Marginal VFR   IFR   Intensive IFR   Very Intensive IFR
Visi :
Ceiling :
>= 8 km
>= 3000ft
5 to 8 km
1000 to 3000 ft
1500m to 5 km
500 to 1000 ft
800 to 1500m
200 to 500 ft
< 800m
< 200 ft
Symbols :   Thunderstorms  Fog  Heavy snow  Heavy precipitations  Wind > 20 kt
SIGMETs :     Misc.  Thunderstorms  Icing  Turbulence  Mountain Waves  Volcanic Ashes







- Airport Elevation : 33 ft
- IATA code : MHZ


EGUN - RAF Mildenhall

CURRENT METAR :
  • 232156Z 11005KT 9999 OVC120 06/05 A3050 RMK AO2A SLP332 WND DATA ESTMD T00590053 .

EXPIRED METARs :
  • 232056Z 08004KT 9999 OVC110 07/02 A3051 RMK AO2A SLP335 WND DATA ESTMD T00690020 52007 .

TAF TAF EGUN
Valid from the 23 at 20:00 until the 25 at 02:00 UTC


232002Z 2320/2502 VRB06KT 9999 FEW050 QNH3047INS
BECMG 2414/2415 33012G20KT 9999 SCT045 QNH3042INS
BECMG 2417/2418 32012KT 9999 BKN050 QNH3040INS TX07/2320Z TN05/2401Z
No reported NOTAMs for that airfield.



MET'MAP, your aeronautical weather chart ! - Copyright ORBIFLY December 2007 - Disclaimer

ORBIFLY MET'MAP TEAM :

Programming & Development : Alexandra Zaïnal
Concept & Development : Baudouin d'Aumeries
Co-Development & Prog : Marc-Olivier Méhu
Technical & hardware support : Manuel Goepfert

Contact : metmap@orbifly.com




SOURCES & CREDITS :

   NOAA